Time;durP1;ratioP1;P1;durP2;ratioP2;P2;SDS_P1;SDS_P2;PMS_P1;PMS_P2;Temp;Humidity;BMP_temperature;BMP_pressure;BME280_temperature;BME280_humidity;BME280_pressure;Samples;Min_cycle;Max_cycle;Signal;HPM_P1;HPM_P2
2021/01/02 00:02:27;;;;;;;45.03;18.33;;;0.40;99.90;;;;;;4350760;33;20436;-74
2021/01/02 00:05:06;;;;;;;47.47;18.23;;;0.50;99.90;;;;;;4333357;33;20199;-74
2021/01/02 00:08:10;;;;;;;48.27;19.73;;;0.50;99.90;;;;;;4352155;33;20393;-74
2021/01/02 00:10:40;;;;;;;48.03;19.17;;;0.60;99.90;;;;;;4351930;33;20446;-75
2021/01/02 00:13:38;;;;;;;51.70;19.83;;;0.60;99.90;;;;;;4351100;33;20467;-75
2021/01/02 00:16:33;;;;;;;48.40;19.73;;;0.60;99.90;;;;;;4351880;33;20187;-75
2021/01/02 00:19:12;;;;;;;50.90;20.47;;;0.60;99.90;;;;;;4350643;33;20188;-75
2021/01/02 00:22:01;;;;;;;47.77;19.00;;;0.60;99.90;;;;;;4350695;33;20156;-75
2021/01/02 00:24:41;;;;;;;49.27;19.40;;;0.60;99.90;;;;;;4350694;33;20544;-74
2021/01/02 00:27:09;;;;;;;52.03;20.43;;;0.60;99.90;;;;;;4336202;33;20172;-74
2021/01/02 00:30:00;;;;;;;52.77;20.40;;;0.60;99.90;;;;;;4352067;33;20160;-74
2021/01/02 00:32:38;;;;;;;52.97;19.63;;;0.60;99.90;;;;;;4352312;33;20148;-74
2021/01/02 00:35:25;;;;;;;50.00;20.00;;;0.50;99.90;;;;;;4349725;33;20191;-73
2021/01/02 00:38:03;;;;;;;51.70;20.57;;;0.50;99.90;;;;;;4350944;33;20179;-74
2021/01/02 00:40:35;;;;;;;45.97;19.77;;;0.50;99.90;;;;;;4350292;33;20175;-74
2021/01/02 00:43:02;;;;;;;53.30;19.83;;;0.50;99.90;;;;;;4350936;33;20392;-74
2021/01/02 00:45:30;;;;;;;53.60;19.87;;;0.50;99.90;;;;;;4351778;33;20467;-75
2021/01/02 00:47:56;;;;;;;50.67;19.67;;;0.50;99.90;;;;;;4350170;33;20153;-75
2021/01/02 00:50:25;;;;;;;50.63;19.70;;;0.50;99.90;;;;;;4351379;33;20164;-76
2021/01/02 00:52:54;;;;;;;49.47;19.43;;;0.50;99.90;;;;;;4356148;33;20164;-77
2021/01/02 00:55:26;;;;;;;49.80;19.97;;;0.50;99.90;;;;;;4366218;32;20430;-77
2021/01/02 00:58:31;;;;;;;52.80;20.27;;;0.50;99.90;;;;;;4365858;32;20168;-77
2021/01/02 01:01:06;;;;;;;54.73;20.60;;;0.60;99.90;;;;;;4366311;32;20530;-76
2021/01/02 01:04:03;;;;;;;49.60;19.23;;;0.40;99.90;;;;;;4364791;32;20472;-76
2021/01/02 01:06:30;;;;;;;51.30;19.93;;;0.40;99.90;;;;;;4364779;32;20394;-76
2021/01/02 01:09:05;;;;;;;53.70;21.10;;;0.40;99.90;;;;;;4364719;32;20153;-74
2021/01/02 01:11:36;;;;;;;57.93;20.30;;;0.40;99.90;;;;;;4366133;32;20156;-75
2021/01/02 01:14:04;;;;;;;55.87;20.67;;;0.50;99.90;;;;;;4366080;32;20151;-77
2021/01/02 01:16:40;;;;;;;54.33;20.63;;;0.50;99.90;;;;;;4364262;32;20207;-74
2021/01/02 01:19:09;;;;;;;55.90;21.47;;;0.70;99.90;;;;;;4364449;32;20163;-74
2021/01/02 01:21:43;;;;;;;53.13;20.40;;;0.80;99.90;;;;;;4351100;33;20393;-74
2021/01/02 01:24:21;;;;;;;52.23;20.87;;;0.80;99.90;;;;;;4350263;33;20210;-74
2021/01/02 01:27:16;;;;;;;56.37;20.43;;;0.80;99.90;;;;;;4349649;33;20188;-75
2021/01/02 01:29:49;;;;;;;55.27;20.97;;;0.70;99.90;;;;;;4349919;33;20186;-75
2021/01/02 01:32:20;;;;;;;56.23;22.07;;;0.60;99.90;;;;;;4351064;33;20175;-75
2021/01/02 01:34:48;;;;;;;57.30;21.77;;;0.60;99.90;;;;;;4349771;33;20147;-74
2021/01/02 01:37:17;;;;;;;57.30;20.60;;;0.80;99.90;;;;;;4349206;33;20160;-75
2021/01/02 01:39:52;;;;;;;52.87;20.93;;;0.70;99.90;;;;;;4351426;33;20154;-75
2021/01/02 01:42:24;;;;;;;57.63;21.07;;;0.70;99.90;;;;;;4350415;33;20170;-74
2021/01/02 01:45:18;;;;;;;57.53;21.43;;;0.60;99.90;;;;;;4349306;33;20208;-75
2021/01/02 01:47:56;;;;;;;56.43;21.00;;;0.70;99.90;;;;;;4349444;33;20148;-75
2021/01/02 01:50:25;;;;;;;54.17;20.93;;;0.80;99.90;;;;;;4349803;33;20179;-75
2021/01/02 01:52:52;;;;;;;52.77;20.13;;;0.90;99.90;;;;;;4350773;33;20402;-75
2021/01/02 01:55:19;;;;;;;55.20;21.60;;;0.90;99.90;;;;;;4349670;33;20183;-74
2021/01/02 01:57:48;;;;;;;52.63;20.63;;;0.90;99.90;;;;;;4349245;33;20152;-75
2021/01/02 02:00:18;;;;;;;53.87;20.97;;;0.80;99.90;;;;;;4350216;33;20482;-75
2021/01/02 02:02:44;;;;;;;53.30;21.27;;;0.80;99.90;;;;;;4349342;33;20148;-74
2021/01/02 02:05:20;;;;;;;54.93;21.97;;;0.80;99.90;;;;;;4349301;33;20234;-75
2021/01/02 02:08:04;;;;;;;56.93;21.47;;;0.80;99.90;;;;;;4349250;33;20152;-75
2021/01/02 02:10:34;;;;;;;53.67;20.57;;;0.70;99.90;;;;;;4349126;33;20167;-75
2021/01/02 02:13:11;;;;;;;53.27;21.37;;;0.80;99.90;;;;;;4356501;33;20157;-75
2021/01/02 02:15:57;;;;;;;58.87;21.93;;;0.80;99.90;;;;;;4358582;33;20160;-75
2021/01/02 02:18:29;;;;;;;58.57;21.07;;;0.80;99.90;;;;;;4364096;33;20202;-74
2021/01/02 02:21:00;;;;;;;54.20;20.50;;;0.80;99.90;;;;;;4365980;33;20148;-75
2021/01/02 02:23:31;;;;;;;56.10;21.43;;;0.70;99.90;;;;;;4364409;33;20149;-75
2021/01/02 02:26:15;;;;;;;55.13;21.03;;;0.70;99.90;;;;;;4364268;33;20144;-75
2021/01/02 02:28:58;;;;;;;53.33;20.73;;;0.80;99.90;;;;;;4365343;33;20277;-76
2021/01/02 02:31:25;;;;;;;56.47;22.17;;;0.80;99.90;;;;;;4364096;33;20275;-75
2021/01/02 02:34:02;;;;;;;56.43;21.07;;;0.90;99.90;;;;;;4363841;33;20152;-75
2021/01/02 02:36:33;;;;;;;56.50;21.07;;;1.00;99.90;;;;;;4364356;33;20152;-75
2021/01/02 02:39:10;;;;;;;59.80;22.93;;;0.80;99.90;;;;;;4363402;33;20141;-76
2021/01/02 02:41:50;;;;;;;56.37;22.43;;;0.80;99.90;;;;;;4365261;33;20520;-76
2021/01/02 02:44:21;;;;;;;58.73;21.97;;;0.80;99.90;;;;;;4365013;33;20147;-76
2021/01/02 02:46:47;;;;;;;58.40;22.37;;;0.90;99.90;;;;;;4363842;33;20173;-74
2021/01/02 02:49:22;;;;;;;59.07;22.93;;;0.80;99.90;;;;;;4363677;33;20159;-74
2021/01/02 02:52:04;;;;;;;61.23;22.40;;;0.80;99.90;;;;;;4365380;33;20152;-74
2021/01/02 02:54:31;;;;;;;58.50;21.83;;;0.80;99.90;;;;;;4365349;33;20167;-74
2021/01/02 02:56:57;;;;;;;55.97;21.50;;;0.80;99.90;;;;;;4364680;32;20156;-75
2021/01/02 02:59:25;;;;;;;54.27;20.97;;;0.80;99.90;;;;;;4366536;32;20212;-75
2021/01/02 03:01:52;;;;;;;60.33;21.53;;;0.80;99.90;;;;;;4366542;32;20148;-74
2021/01/02 03:04:18;;;;;;;60.30;22.77;;;0.90;99.90;;;;;;4366420;32;20140;-73
2021/01/02 03:06:45;;;;;;;58.80;23.13;;;0.80;99.90;;;;;;4367903;32;20152;-74
2021/01/02 03:09:12;;;;;;;59.97;23.53;;;0.80;99.90;;;;;;4366480;32;20148;-74
2021/01/02 03:11:42;;;;;;;58.20;22.43;;;0.70;99.90;;;;;;4367858;32;20505;-75
2021/01/02 03:14:08;;;;;;;66.30;23.77;;;0.60;99.90;;;;;;4367281;32;20642;-75
2021/01/02 03:16:35;;;;;;;61.77;22.33;;;0.70;99.90;;;;;;4366129;32;20222;-75
2021/01/02 03:19:05;;;;;;;63.10;23.63;;;0.70;99.90;;;;;;4367941;32;20152;-75
2021/01/02 03:21:31;;;;;;;59.10;22.00;;;0.80;99.90;;;;;;4366266;32;20188;-75
2021/01/02 03:24:00;;;;;;;60.77;22.73;;;0.90;99.90;;;;;;4367577;32;20450;-76
2021/01/02 03:26:27;;;;;;;54.97;21.97;;;0.90;99.90;;;;;;4366120;32;20170;-75
2021/01/02 03:28:56;;;;;;;57.13;22.30;;;0.90;99.90;;;;;;4367596;32;20171;-75
2021/01/02 03:31:23;;;;;;;59.20;22.53;;;1.00;99.90;;;;;;4366238;32;20512;-75
2021/01/02 03:33:49;;;;;;;56.80;21.57;;;1.10;99.90;;;;;;4352208;33;20327;-75
2021/01/02 03:36:16;;;;;;;55.53;20.93;;;1.10;99.90;;;;;;4367402;32;20174;-75
2021/01/02 03:38:53;;;;;;;58.50;22.67;;;1.00;99.90;;;;;;4366026;32;20171;-75
2021/01/02 03:41:19;;;;;;;62.60;22.57;;;1.00;99.90;;;;;;4367486;32;20289;-77
2021/01/02 03:43:48;;;;;;;59.30;22.80;;;1.00;99.90;;;;;;4364314;32;20265;-74
2021/01/02 03:46:15;;;;;;;57.40;21.50;;;0.90;99.90;;;;;;4363987;32;20207;-75
2021/01/02 03:48:41;;;;;;;61.20;22.23;;;0.80;99.90;;;;;;4364992;32;20156;-75
2021/01/02 03:51:08;;;;;;;58.70;23.27;;;0.90;99.90;;;;;;4365053;32;20518;-75
2021/01/02 03:53:34;;;;;;;60.93;22.47;;;0.90;99.90;;;;;;4367075;32;20239;-75
2021/01/02 03:56:01;;;;;;;59.83;22.73;;;0.90;99.90;;;;;;4365439;32;20379;-75
2021/01/02 03:58:28;;;;;;;57.83;22.97;;;0.90;99.90;;;;;;4365471;32;20158;-75
2021/01/02 04:00:54;;;;;;;62.00;23.63;;;0.90;99.90;;;;;;4365062;32;20152;-75
2021/01/02 04:03:21;;;;;;;58.33;23.13;;;1.00;99.90;;;;;;4366644;32;20207;-75
2021/01/02 04:05:48;;;;;;;62.17;23.20;;;1.10;99.90;;;;;;4365437;32;20151;-75
2021/01/02 04:08:14;;;;;;;57.67;22.47;;;1.10;99.90;;;;;;4364603;32;20220;-75
2021/01/02 04:10:41;;;;;;;57.57;22.07;;;1.10;99.90;;;;;;4365989;32;20168;-75
2021/01/02 04:13:07;;;;;;;60.43;22.83;;;1.10;99.90;;;;;;4366819;32;20182;-75
2021/01/02 04:15:34;;;;;;;59.97;23.43;;;1.00;99.90;;;;;;4351256;33;20179;-75
2021/01/02 04:18:01;;;;;;;61.50;22.80;;;1.00;99.90;;;;;;4365172;32;20175;-75
2021/01/02 04:20:28;;;;;;;62.87;22.90;;;1.10;99.90;;;;;;4365268;32;20513;-75
2021/01/02 04:22:55;;;;;;;62.53;23.53;;;1.10;99.90;;;;;;4365213;32;20190;-75
2021/01/02 04:25:22;;;;;;;60.80;21.37;;;1.10;99.90;;;;;;4365311;32;20160;-74
2021/01/02 04:27:49;;;;;;;63.83;23.40;;;1.10;99.90;;;;;;4367727;32;20486;-75
2021/01/02 04:30:16;;;;;;;59.63;21.77;;;1.10;99.90;;;;;;4370465;32;20174;-74
2021/01/02 04:32:49;;;;;;;62.33;23.47;;;1.00;99.90;;;;;;4374226;32;20175;-75
2021/01/02 04:35:16;;;;;;;62.93;23.43;;;1.10;99.90;;;;;;4359152;33;20576;-76
2021/01/02 04:37:42;;;;;;;58.40;22.60;;;1.10;99.90;;;;;;4365188;32;20552;-76
2021/01/02 04:40:12;;;;;;;61.47;23.10;;;1.00;99.90;;;;;;4373562;32;20152;-76
2021/01/02 04:42:40;;;;;;;60.47;23.43;;;1.00;99.90;;;;;;4378169;32;20540;-76
2021/01/02 04:45:08;;;;;;;55.40;22.70;;;1.00;99.90;;;;;;4378712;32;20177;-75
2021/01/02 04:47:36;;;;;;;60.40;21.97;;;1.00;99.90;;;;;;4379964;32;20418;-76
2021/01/02 04:50:07;;;;;;;59.47;22.60;;;0.90;99.90;;;;;;4379750;32;20188;-76
2021/01/02 04:52:35;;;;;;;57.20;23.63;;;0.90;99.90;;;;;;4378362;32;20155;-76
2021/01/02 04:55:08;;;;;;;55.53;22.03;;;1.00;99.90;;;;;;4366803;32;20455;-76
2021/01/02 04:57:36;;;;;;;59.30;22.37;;;0.90;99.90;;;;;;4371895;32;20175;-75
2021/01/02 05:00:08;;;;;;;56.30;22.13;;;0.80;99.90;;;;;;4369836;32;20179;-75
2021/01/02 05:02:38;;;;;;;60.50;23.27;;;0.80;99.90;;;;;;4370070;32;20176;-76
2021/01/02 05:05:06;;;;;;;52.77;21.63;;;0.90;99.90;;;;;;4370500;32;20195;-76
2021/01/02 05:07:34;;;;;;;59.80;22.70;;;1.00;99.90;;;;;;4372935;32;20190;-75
2021/01/02 05:10:02;;;;;;;55.57;22.23;;;1.00;99.90;;;;;;4365052;32;20440;-75
2021/01/02 05:12:33;;;;;;;58.67;22.37;;;1.00;99.90;;;;;;4369400;32;20144;-75
2021/01/02 05:15:12;;;;;;;53.77;20.33;;;1.00;99.90;;;;;;4370010;32;20513;-75
2021/01/02 05:17:40;;;;;;;57.37;21.67;;;0.90;99.90;;;;;;4370523;32;20159;-75
2021/01/02 05:20:12;;;;;;;54.00;21.63;;;1.00;99.90;;;;;;4368112;32;20187;-75
2021/01/02 05:22:40;;;;;;;54.50;21.27;;;0.90;99.90;;;;;;4367714;32;20394;-75
2021/01/02 05:25:16;;;;;;;51.47;21.60;;;0.90;99.90;;;;;;4364682;32;20213;-75
2021/01/02 05:27:45;;;;;;;50.60;19.90;;;0.80;99.90;;;;;;4364435;32;20197;-74
2021/01/02 05:30:26;;;;;;;54.10;20.80;;;0.90;99.90;;;;;;4364450;32;20171;-74
2021/01/02 05:33:10;;;;;;;53.03;20.80;;;0.90;99.90;;;;;;4365812;32;20458;-75
2021/01/02 05:35:45;;;;;;;58.40;22.17;;;0.90;99.90;;;;;;4372214;32;20177;-74
2021/01/02 05:38:14;;;;;;;52.97;21.87;;;1.00;99.90;;;;;;4369925;32;20579;-75
2021/01/02 05:40:52;;;;;;;52.13;21.67;;;1.00;99.90;;;;;;4363866;32;20160;-75
2021/01/02 05:43:28;;;;;;;55.57;22.57;;;0.90;99.90;;;;;;4369576;32;20445;-76
2021/01/02 05:45:55;;;;;;;57.27;22.07;;;0.80;99.90;;;;;;4370101;32;20159;-75
2021/01/02 05:48:21;;;;;;;59.87;21.53;;;0.70;99.90;;;;;;4371371;32;20206;-75
2021/01/02 05:50:54;;;;;;;56.53;22.23;;;0.70;99.90;;;;;;4372407;32;20178;-75
2021/01/02 05:53:24;;;;;;;53.03;21.77;;;0.70;99.90;;;;;;4380439;32;20143;-75
2021/01/02 05:56:13;;;;;;;58.17;22.70;;;0.70;99.90;;;;;;4378951;32;20225;-76
2021/01/02 05:58:44;;;;;;;57.00;22.07;;;0.80;99.90;;;;;;4379110;32;20170;-74
2021/01/02 06:01:19;;;;;;;52.30;21.80;;;0.80;99.90;;;;;;4380907;32;20501;-74
2021/01/02 06:03:50;;;;;;;52.10;20.50;;;0.70;99.90;;;;;;4379884;32;20197;-74
2021/01/02 06:06:18;;;;;;;58.50;21.40;;;0.60;99.90;;;;;;4379941;32;20151;-74
2021/01/02 06:08:49;;;;;;;55.27;21.30;;;0.70;99.90;;;;;;4378918;32;20167;-74
2021/01/02 06:11:18;;;;;;;56.73;21.93;;;0.80;99.90;;;;;;4380324;32;20391;-74
2021/01/02 06:13:48;;;;;;;53.43;21.60;;;0.90;99.90;;;;;;4378965;32;20202;-74
2021/01/02 06:16:15;;;;;;;54.13;21.57;;;1.00;99.90;;;;;;4378922;32;20470;-74
2021/01/02 06:18:43;;;;;;;52.87;20.47;;;0.90;99.90;;;;;;4379512;32;20171;-75
2021/01/02 06:21:14;;;;;;;54.90;20.97;;;0.90;99.90;;;;;;4366857;32;20254;-74
2021/01/02 06:23:43;;;;;;;55.43;21.87;;;0.90;99.90;;;;;;4362120;33;20655;-74
2021/01/02 06:26:12;;;;;;;53.90;21.17;;;1.00;99.90;;;;;;4362409;33;20151;-78
2021/01/02 06:28:41;;;;;;;50.03;20.43;;;0.90;99.90;;;;;;4364542;33;20148;-78
2021/01/02 06:31:16;;;;;;;46.53;19.27;;;0.80;99.90;;;;;;4363918;32;20451;-77
2021/01/02 06:33:48;;;;;;;51.10;20.53;;;0.60;99.90;;;;;;4367307;32;20151;-77
2021/01/02 06:36:29;;;;;;;54.10;21.60;;;0.60;99.90;;;;;;4367294;32;20448;-79
2021/01/02 06:39:24;;;;;;;54.77;20.83;;;0.50;99.90;;;;;;4367563;32;20164;-76
2021/01/02 06:41:52;;;;;;;53.23;21.47;;;0.60;99.90;;;;;;4368091;32;20234;-75
2021/01/02 06:44:39;;;;;;;53.03;20.97;;;0.70;99.90;;;;;;4366119;32;20213;-75
2021/01/02 06:47:22;;;;;;;56.97;21.73;;;0.70;99.90;;;;;;4368071;32;20170;-74
2021/01/02 06:49:53;;;;;;;54.97;21.20;;;0.80;99.90;;;;;;4366471;32;20187;-76
2021/01/02 06:52:36;;;;;;;51.17;20.93;;;0.80;99.90;;;;;;4368014;32;20271;-74
2021/01/02 06:55:18;;;;;;;51.03;20.47;;;0.80;99.90;;;;;;4366598;32;20175;-74
2021/01/02 06:57:45;;;;;;;51.43;20.10;;;0.60;99.90;;;;;;4368134;32;20512;-76
2021/01/02 07:00:23;;;;;;;55.43;21.67;;;0.60;99.90;;;;;;4353116;33;20188;-75
2021/01/02 07:02:49;;;;;;;57.77;22.40;;;0.60;99.90;;;;;;4367363;32;20441;-75
2021/01/02 07:05:42;;;;;;;54.90;21.53;;;0.50;99.90;;;;;;4366329;32;20148;-75
2021/01/02 07:08:41;;;;;;;53.63;20.90;;;0.50;99.90;;;;;;4367091;32;20430;-74
2021/01/02 07:11:33;;;;;;;59.67;21.20;;;0.60;99.90;;;;;;4366330;32;20149;-76
2021/01/02 07:14:07;;;;;;;54.43;19.83;;;0.70;99.90;;;;;;4368018;32;20160;-74
2021/01/02 07:16:47;;;;;;;49.77;20.77;;;0.70;99.90;;;;;;4367086;32;20182;-74
2021/01/02 07:19:26;;;;;;;54.13;20.50;;;0.70;99.90;;;;;;4366637;32;20166;-75
2021/01/02 07:22:06;;;;;;;52.20;20.83;;;0.80;99.90;;;;;;4366410;32;20160;-74
2021/01/02 07:24:46;;;;;;;54.47;21.50;;;0.80;99.90;;;;;;4366287;32;20156;-75
2021/01/02 07:27:18;;;;;;;49.70;20.60;;;0.80;99.90;;;;;;4366230;32;20156;-74
2021/01/02 07:29:51;;;;;;;55.13;20.47;;;0.80;99.90;;;;;;4366500;32;20168;-75
2021/01/02 07:32:26;;;;;;;53.43;21.43;;;0.70;99.90;;;;;;4352535;33;20180;-74
2021/01/02 07:34:56;;;;;;;54.03;21.30;;;0.60;99.90;;;;;;4365979;32;20196;-74
2021/01/02 07:37:25;;;;;;;55.90;21.27;;;0.50;99.90;;;;;;4365819;32;20210;-76
2021/01/02 07:39:56;;;;;;;53.07;20.83;;;0.50;99.90;;;;;;4366017;32;20492;-76
2021/01/02 07:42:24;;;;;;;54.23;20.47;;;0.40;99.90;;;;;;4365886;32;20172;-74
2021/01/02 07:45:09;;;;;;;52.23;20.53;;;0.40;99.90;;;;;;4365362;33;20179;-74
2021/01/02 07:47:37;;;;;;;51.97;20.90;;;0.50;99.90;;;;;;4365767;32;20398;-75
2021/01/02 07:50:05;;;;;;;56.63;20.77;;;0.60;99.90;;;;;;4366155;32;20231;-75
2021/01/02 07:52:32;;;;;;;58.87;22.30;;;0.50;99.90;;;;;;4365661;32;20172;-74
2021/01/02 07:55:06;;;;;;;55.50;21.87;;;0.50;99.90;;;;;;4365374;32;20490;-75
2021/01/02 07:57:32;;;;;;;55.60;21.03;;;0.60;99.90;;;;;;4365554;32;20186;-75
2021/01/02 07:59:59;;;;;;;53.37;20.57;;;0.60;99.90;;;;;;4366137;32;20532;-75
2021/01/02 08:02:26;;;;;;;53.27;21.07;;;0.70;99.90;;;;;;4367048;32;20147;-75
2021/01/02 08:04:53;;;;;;;52.13;21.10;;;0.80;99.90;;;;;;4365610;32;20149;-76
2021/01/02 08:07:20;;;;;;;49.87;20.07;;;0.90;99.90;;;;;;4365293;32;20218;-75
2021/01/02 08:09:48;;;;;;;50.30;20.17;;;0.90;99.90;;;;;;4365456;32;20158;-76
2021/01/02 08:12:17;;;;;;;54.73;21.33;;;0.90;99.90;;;;;;4365440;32;20341;-76
2021/01/02 08:14:46;;;;;;;54.93;21.67;;;0.80;99.90;;;;;;4365654;32;20504;-77
2021/01/02 08:17:18;;;;;;;52.57;21.07;;;0.90;99.90;;;;;;4366827;32;20392;-76
2021/01/02 08:19:47;;;;;;;50.10;20.60;;;0.90;99.90;;;;;;4366463;32;20382;-76
2021/01/02 08:22:36;;;;;;;52.60;20.30;;;0.80;99.90;;;;;;4366968;32;20184;-76
2021/01/02 08:25:16;;;;;;;49.70;20.03;;;0.60;99.90;;;;;;4365351;32;20144;-76
2021/01/02 08:27:43;;;;;;;52.37;21.23;;;0.70;99.90;;;;;;4367020;32;20348;-76
2021/01/02 08:30:12;;;;;;;51.10;20.00;;;0.80;99.90;;;;;;4365170;32;20396;-76
2021/01/02 08:32:41;;;;;;;54.73;21.87;;;0.70;99.90;;;;;;4364898;32;20171;-75
2021/01/02 08:35:35;;;;;;;50.50;20.60;;;0.50;99.90;;;;;;4365809;32;20549;-76
2021/01/02 08:38:11;;;;;;;55.07;21.03;;;0.50;99.90;;;;;;4303811;33;20221;-76
2021/01/02 08:40:40;;;;;;;55.27;21.23;;;0.50;99.90;;;;;;4303796;33;20206;-75
2021/01/02 08:43:06;;;;;;;58.37;21.73;;;0.50;99.90;;;;;;4304355;33;20201;-74
2021/01/02 08:45:35;;;;;;;56.60;22.03;;;0.70;99.90;;;;;;4304740;33;20181;-76
2021/01/02 08:48:13;;;;;;;52.57;21.43;;;0.70;99.90;;;;;;4305561;33;20154;-75
2021/01/02 08:50:40;;;;;;;51.37;20.00;;;0.80;99.90;;;;;;4303729;33;20184;-75
2021/01/02 08:53:25;;;;;;;49.47;20.40;;;0.90;99.90;;;;;;4303860;33;20161;-76
2021/01/02 08:55:52;;;;;;;52.87;20.90;;;0.90;99.90;;;;;;4303754;33;20195;-75
2021/01/02 08:58:34;;;;;;;49.60;20.13;;;1.00;99.90;;;;;;4303743;33;20197;-75
2021/01/02 09:01:02;;;;;;;50.30;19.87;;;1.10;99.90;;;;;;4303693;33;20165;-75
2021/01/02 09:03:29;;;;;;;50.37;20.70;;;1.00;99.90;;;;;;4291823;33;20185;-74
2021/01/02 09:05:55;;;;;;;50.37;20.00;;;1.10;99.90;;;;;;4303764;33;20201;-76
2021/01/02 09:08:22;;;;;;;48.70;20.10;;;1.20;99.90;;;;;;4302995;33;20622;-76
2021/01/02 09:10:55;;;;;;;53.03;21.17;;;1.30;99.90;;;;;;4304350;33;20539;-76
2021/01/02 09:13:27;;;;;;;45.30;19.70;;;1.50;99.90;;;;;;4305142;33;20180;-76
2021/01/02 09:16:00;;;;;;;48.60;20.27;;;1.40;99.90;;;;;;4358888;32;20168;-76
2021/01/02 09:18:32;;;;;;;49.53;19.93;;;1.50;99.90;;;;;;4364513;32;20160;-77
2021/01/02 09:21:05;;;;;;;44.03;18.93;;;1.60;99.90;;;;;;4365481;32;20180;-76
2021/01/02 09:23:37;;;;;;;49.87;19.87;;;1.70;99.90;;;;;;4365259;32;20152;-77
2021/01/02 09:26:04;;;;;;;49.63;20.20;;;1.80;99.90;;;;;;4365392;32;20207;-76
2021/01/02 09:28:44;;;;;;;49.67;19.53;;;1.80;99.90;;;;;;4364310;32;20199;-77
2021/01/02 09:31:10;;;;;;;48.07;19.97;;;1.80;99.90;;;;;;4364871;32;20222;-77
2021/01/02 09:33:37;;;;;;;48.57;20.47;;;1.80;99.90;;;;;;4364340;32;20199;-76
2021/01/02 09:36:25;;;;;;;48.90;20.20;;;1.70;99.90;;;;;;4363793;32;20231;-76
2021/01/02 09:39:05;;;;;;;51.57;20.40;;;1.80;99.90;;;;;;4354277;32;20256;-75
2021/01/02 09:41:32;;;;;;;48.83;21.57;;;1.70;99.90;;;;;;4361342;32;20288;-75
2021/01/02 09:43:58;;;;;;;49.30;20.43;;;1.30;99.90;;;;;;4365573;32;20220;-77
2021/01/02 09:46:27;;;;;;;48.47;19.63;;;1.40;99.90;;;;;;4365505;32;20156;-77
2021/01/02 09:48:56;;;;;;;51.90;19.90;;;1.60;99.90;;;;;;4364599;32;20155;-77
2021/01/02 09:51:23;;;;;;;49.43;20.90;;;1.70;99.90;;;;;;4363482;32;20160;-77
2021/01/02 09:53:51;;;;;;;50.53;20.93;;;1.70;99.90;;;;;;4364158;32;20210;-77
2021/01/02 09:56:19;;;;;;;52.80;20.87;;;1.80;99.90;;;;;;4363945;32;20220;-76
2021/01/02 09:58:45;;;;;;;49.23;20.73;;;1.80;99.90;;;;;;4365774;32;20447;-77
2021/01/02 10:01:15;;;;;;;47.30;20.63;;;1.90;99.90;;;;;;4364291;32;20140;-76
2021/01/02 10:03:42;;;;;;;48.90;20.77;;;2.00;99.90;;;;;;4365504;32;20153;-77
2021/01/02 10:06:09;;;;;;;49.60;21.70;;;2.00;99.90;;;;;;4363383;32;20144;-76
2021/01/02 10:08:35;;;;;;;49.10;21.40;;;2.10;99.90;;;;;;4363486;33;20183;-76
2021/01/02 10:11:05;;;;;;;51.10;22.00;;;2.10;99.90;;;;;;4366012;32;20173;-77
2021/01/02 10:13:32;;;;;;;48.47;21.33;;;2.20;99.90;;;;;;4375738;32;20217;-76
2021/01/02 10:15:59;;;;;;;50.80;21.73;;;2.30;99.90;;;;;;4380081;32;20160;-77
2021/01/02 10:18:30;;;;;;;48.63;21.10;;;2.30;99.90;;;;;;4380208;32;20183;-76
2021/01/02 10:20:56;;;;;;;50.47;21.37;;;2.30;99.90;;;;;;4380225;32;20156;-76
2021/01/02 10:23:23;;;;;;;50.37;21.73;;;2.40;99.90;;;;;;4380017;32;20170;-76
2021/01/02 10:25:49;;;;;;;53.87;22.03;;;2.40;99.90;;;;;;4380588;32;20148;-77
2021/01/02 10:28:16;;;;;;;50.07;20.67;;;2.40;99.90;;;;;;4378777;32;20195;-77
2021/01/02 10:30:42;;;;;;;51.33;22.03;;;2.50;99.90;;;;;;4378857;32;20153;-77
2021/01/02 10:33:09;;;;;;;43.70;19.37;;;2.50;99.90;;;;;;4378829;32;20192;-77
2021/01/02 10:35:35;;;;;;;52.17;21.20;;;2.40;99.90;;;;;;4378986;32;20148;-76
2021/01/02 10:38:01;;;;;;;51.23;21.73;;;2.50;99.90;;;;;;4379961;32;20219;-77
2021/01/02 10:40:28;;;;;;;50.57;21.83;;;2.50;99.90;;;;;;4367078;32;20187;-77
2021/01/02 10:42:54;;;;;;;46.80;21.57;;;2.50;99.90;;;;;;4363761;33;20164;-77
2021/01/02 10:45:21;;;;;;;54.07;22.20;;;2.50;99.90;;;;;;4363871;32;20222;-76
2021/01/02 10:47:47;;;;;;;53.10;22.00;;;2.60;99.90;;;;;;4365035;33;20157;-76
2021/01/02 10:50:14;;;;;;;54.67;22.00;;;2.70;99.90;;;;;;4363018;33;20442;-76
2021/01/02 10:52:41;;;;;;;50.03;21.30;;;2.60;99.90;;;;;;4364655;33;20180;-76
2021/01/02 10:55:07;;;;;;;51.43;22.50;;;2.60;99.90;;;;;;4363741;33;20167;-75
2021/01/02 10:57:34;;;;;;;50.53;22.03;;;2.60;99.90;;;;;;4363559;33;20200;-75
2021/01/02 11:00:03;;;;;;;54.80;21.90;;;2.60;99.90;;;;;;4363673;33;20222;-74
2021/01/02 11:02:29;;;;;;;54.77;23.00;;;2.60;99.90;;;;;;4364845;33;20214;-78
2021/01/02 11:04:56;;;;;;;53.70;23.27;;;2.60;99.90;;;;;;4363592;33;20195;-75
2021/01/02 11:07:26;;;;;;;54.80;22.77;;;2.60;99.90;;;;;;4364724;33;20157;-75
2021/01/02 11:09:53;;;;;;;53.67;22.70;;;2.50;99.90;;;;;;4363537;33;20509;-75
2021/01/02 11:12:22;;;;;;;50.40;22.17;;;2.40;99.90;;;;;;4363678;33;20205;-74
2021/01/02 11:14:52;;;;;;;59.07;23.23;;;2.40;99.90;;;;;;4363481;33;20164;-74
2021/01/02 11:17:19;;;;;;;52.13;22.63;;;2.40;99.90;;;;;;4364116;32;20179;-73
2021/01/02 11:19:46;;;;;;;55.23;22.80;;;2.30;99.90;;;;;;4365942;32;20256;-74
2021/01/02 11:22:13;;;;;;;50.87;23.07;;;2.40;99.90;;;;;;4366200;32;20164;-73
2021/01/02 11:24:41;;;;;;;53.47;22.60;;;2.50;99.90;;;;;;4365559;32;20144;-73
2021/01/02 11:27:08;;;;;;;52.87;24.17;;;2.40;99.90;;;;;;4367401;32;20163;-73
2021/01/02 11:29:34;;;;;;;52.37;22.23;;;2.50;99.90;;;;;;4367216;32;20152;-73
2021/01/02 11:32:06;;;;;;;52.83;22.60;;;2.50;99.90;;;;;;4366125;32;20478;-74
2021/01/02 11:34:33;;;;;;;48.60;22.40;;;2.50;99.90;;;;;;4367658;32;20176;-75
2021/01/02 11:37:01;;;;;;;54.23;22.57;;;2.60;99.90;;;;;;4367310;32;20182;-75
2021/01/02 11:39:28;;;;;;;51.73;22.20;;;2.50;99.90;;;;;;4366386;32;20196;-73
2021/01/02 11:41:55;;;;;;;50.10;21.80;;;2.50;99.90;;;;;;4366087;32;20152;-74
2021/01/02 11:44:24;;;;;;;50.53;21.93;;;2.60;99.90;;;;;;4365381;32;20153;-76
2021/01/02 11:46:54;;;;;;;50.97;23.33;;;2.60;99.90;;;;;;4366007;32;20482;-75
2021/01/02 11:49:26;;;;;;;51.03;22.17;;;2.60;99.90;;;;;;4365452;32;20179;-73
2021/01/02 11:51:58;;;;;;;49.30;22.30;;;2.60;99.90;;;;;;4365775;32;20159;-74
2021/01/02 11:54:26;;;;;;;55.70;22.13;;;2.50;99.90;;;;;;4366471;32;20186;-73
2021/01/02 11:56:52;;;;;;;48.43;22.00;;;2.50;99.90;;;;;;4366367;32;20219;-74
2021/01/02 11:59:20;;;;;;;50.13;21.90;;;2.40;99.90;;;;;;4367034;32;20206;-73
2021/01/02 12:01:49;;;;;;;52.63;21.80;;;2.50;99.90;;;;;;4365397;32;20196;-74
2021/01/02 12:04:18;;;;;;;51.87;22.50;;;2.50;99.90;;;;;;4365434;32;20187;-73
2021/01/02 12:06:44;;;;;;;55.20;22.23;;;2.50;99.90;;;;;;4365733;32;20137;-75
2021/01/02 12:09:12;;;;;;;55.60;23.43;;;2.50;99.90;;;;;;4365189;32;20163;-74
2021/01/02 12:11:41;;;;;;;54.27;21.83;;;2.40;99.90;;;;;;4365655;32;20145;-75
2021/01/02 12:14:09;;;;;;;51.90;22.40;;;2.50;99.90;;;;;;4365327;32;20539;-73
2021/01/02 12:16:47;;;;;;;54.47;22.00;;;2.50;99.90;;;;;;4366815;32;20211;-75
2021/01/02 12:19:17;;;;;;;53.60;22.30;;;2.50;99.90;;;;;;4365383;32;20162;-74
2021/01/02 12:21:44;;;;;;;51.77;22.27;;;2.60;99.90;;;;;;4366629;32;20390;-74
2021/01/02 12:24:11;;;;;;;52.67;21.90;;;2.50;99.90;;;;;;4366102;32;20243;-73
2021/01/02 12:26:52;;;;;;;54.17;22.47;;;2.60;99.90;;;;;;4365144;32;20149;-73
2021/01/02 12:29:20;;;;;;;54.87;21.97;;;2.50;99.90;;;;;;4366395;32;20135;-75
2021/01/02 12:31:51;;;;;;;48.63;20.80;;;2.50;99.90;;;;;;4365232;32;20174;-74
2021/01/02 12:34:24;;;;;;;49.53;21.17;;;2.30;99.90;;;;;;4365655;32;20421;-74
2021/01/02 12:36:51;;;;;;;49.30;21.13;;;2.20;99.90;;;;;;4365674;32;20443;-75
2021/01/02 12:39:25;;;;;;;51.37;21.83;;;2.20;99.90;;;;;;4364860;32;20230;-77
2021/01/02 12:41:51;;;;;;;49.27;20.70;;;2.20;99.90;;;;;;4364984;32;20152;-74
2021/01/02 12:44:21;;;;;;;51.73;21.40;;;2.30;99.90;;;;;;4364893;32;20171;-75
2021/01/02 12:46:50;;;;;;;51.00;21.63;;;2.30;99.90;;;;;;4364319;32;20424;-76
2021/01/02 12:49:20;;;;;;;49.97;21.20;;;2.30;99.90;;;;;;4365633;32;20135;-73
2021/01/02 12:51:46;;;;;;;52.10;21.37;;;2.40;99.90;;;;;;4365242;32;20169;-74
2021/01/02 12:54:14;;;;;;;49.47;21.77;;;2.30;99.90;;;;;;4364824;32;20156;-74
2021/01/02 12:56:48;;;;;;;50.33;21.50;;;2.40;99.90;;;;;;4365627;32;20203;-71
2021/01/02 12:59:23;;;;;;;51.20;21.23;;;2.40;99.90;;;;;;4365746;32;20136;-70